sensor_id;sensor_type;location;lat;lon;timestamp;pressure;altitude;pressure_sealevel;temperature;humidity
63090;BME280;49174;43.198;27.824;2022-12-07T00:01:12;101800.94;;;6.81;100.00
63090;BME280;49174;43.198;27.824;2022-12-07T00:03:39;101801.97;;;6.70;100.00
63090;BME280;49174;43.198;27.824;2022-12-07T00:06:07;101796.31;;;6.74;100.00
63090;BME280;49174;43.198;27.824;2022-12-07T00:08:33;101808.31;;;6.69;100.00
63090;BME280;49174;43.198;27.824;2022-12-07T00:11:08;101801.66;;;6.74;100.00
63090;BME280;49174;43.198;27.824;2022-12-07T00:13:35;101799.69;;;6.76;100.00
63090;BME280;49174;43.198;27.824;2022-12-07T00:16:08;101806.91;;;6.75;100.00
63090;BME280;49174;43.198;27.824;2022-12-07T00:18:34;101803.09;;;6.78;100.00
63090;BME280;49174;43.198;27.824;2022-12-07T00:21:09;101804.81;;;6.69;100.00
63090;BME280;49174;43.198;27.824;2022-12-07T00:23:35;101808.03;;;6.63;100.00
63090;BME280;49174;43.198;27.824;2022-12-07T00:28:33;101811.75;;;6.52;100.00
63090;BME280;49174;43.198;27.824;2022-12-07T00:31:11;101814.47;;;6.33;100.00
63090;BME280;49174;43.198;27.824;2022-12-07T00:33:37;101812.34;;;6.26;100.00
63090;BME280;49174;43.198;27.824;2022-12-07T00:36:06;101812.75;;;6.32;100.00
63090;BME280;49174;43.198;27.824;2022-12-07T00:38:33;101814.31;;;6.44;100.00
63090;BME280;49174;43.198;27.824;2022-12-07T00:41:02;101812.91;;;6.40;100.00
63090;BME280;49174;43.198;27.824;2022-12-07T00:43:28;101808.53;;;6.39;100.00
63090;BME280;49174;43.198;27.824;2022-12-07T00:45:55;101806.56;;;6.41;100.00
63090;BME280;49174;43.198;27.824;2022-12-07T00:48:21;101814.03;;;6.47;100.00
63090;BME280;49174;43.198;27.824;2022-12-07T00:50:47;101813.41;;;6.63;100.00
63090;BME280;49174;43.198;27.824;2022-12-07T00:53:13;101817.94;;;6.62;100.00
63090;BME280;49174;43.198;27.824;2022-12-07T00:55:39;101816.53;;;6.58;100.00
63090;BME280;49174;43.198;27.824;2022-12-07T00:58:05;101817.63;;;6.75;100.00
63090;BME280;49174;43.198;27.824;2022-12-07T01:00:30;101812.81;;;6.79;100.00
63090;BME280;49174;43.198;27.824;2022-12-07T01:02:56;101800.41;;;6.78;100.00
63090;BME280;49174;43.198;27.824;2022-12-07T01:05:22;101800.41;;;6.78;100.00
63090;BME280;49174;43.198;27.824;2022-12-07T01:07:47;101793.31;;;6.77;100.00
63090;BME280;49174;43.198;27.824;2022-12-07T01:10:14;101796.69;;;6.88;100.00
63090;BME280;49174;43.198;27.824;2022-12-07T01:12:40;101789.09;;;6.84;100.00
63090;BME280;49174;43.198;27.824;2022-12-07T01:15:06;101782.03;;;6.83;100.00
63090;BME280;49174;43.198;27.824;2022-12-07T01:17:32;101776.38;;;6.86;100.00
63090;BME280;49174;43.198;27.824;2022-12-07T01:19:58;101781.91;;;6.75;100.00
63090;BME280;49174;43.198;27.824;2022-12-07T01:22:23;101781.31;;;6.81;100.00
63090;BME280;49174;43.198;27.824;2022-12-07T01:24:49;101776.25;;;6.78;100.00
63090;BME280;49174;43.198;27.824;2022-12-07T01:27:15;101777.53;;;6.74;100.00
63090;BME280;49174;43.198;27.824;2022-12-07T01:29:40;101770.91;;;6.78;100.00
63090;BME280;49174;43.198;27.824;2022-12-07T01:32:06;101766.00;;;6.63;100.00
63090;BME280;49174;43.198;27.824;2022-12-07T01:34:32;101780.97;;;6.56;100.00
63090;BME280;49174;43.198;27.824;2022-12-07T01:36:57;101758.69;;;6.56;100.00
63090;BME280;49174;43.198;27.824;2022-12-07T01:39:23;101762.91;;;6.58;100.00
63090;BME280;49174;43.198;27.824;2022-12-07T01:41:49;101752.19;;;6.48;100.00
63090;BME280;49174;43.198;27.824;2022-12-07T01:46:59;101747.97;;;6.46;100.00
63090;BME280;49174;43.198;27.824;2022-12-07T01:49:42;101747.13;;;6.45;100.00
63090;BME280;49174;43.198;27.824;2022-12-07T01:54:42;101745.75;;;6.32;100.00
63090;BME280;49174;43.198;27.824;2022-12-07T01:57:09;101742.78;;;6.35;100.00
63090;BME280;49174;43.198;27.824;2022-12-07T01:59:36;101746.03;;;6.29;100.00
63090;BME280;49174;43.198;27.824;2022-12-07T02:02:04;101747.59;;;6.31;100.00
63090;BME280;49174;43.198;27.824;2022-12-07T02:04:31;101740.41;;;6.32;100.00
63090;BME280;49174;43.198;27.824;2022-12-07T02:06:57;101743.50;;;6.37;100.00
63090;BME280;49174;43.198;27.824;2022-12-07T02:09:23;101742.94;;;6.23;100.00
63090;BME280;49174;43.198;27.824;2022-12-07T02:11:49;101744.06;;;6.21;100.00
63090;BME280;49174;43.198;27.824;2022-12-07T02:14:15;101744.38;;;6.18;100.00
63090;BME280;49174;43.198;27.824;2022-12-07T02:16:58;101741.41;;;6.21;100.00
63090;BME280;49174;43.198;27.824;2022-12-07T02:19:45;101740.56;;;6.20;100.00
63090;BME280;49174;43.198;27.824;2022-12-07T02:25:39;101737.31;;;6.17;100.00
63090;BME280;49174;43.198;27.824;2022-12-07T02:30:49;101733.38;;;6.11;100.00
63090;BME280;49174;43.198;27.824;2022-12-07T02:33:44;101739.88;;;6.09;100.00
63090;BME280;49174;43.198;27.824;2022-12-07T02:36:17;101741.56;;;6.19;100.00
63090;BME280;49174;43.198;27.824;2022-12-07T02:43:58;101745.22;;;5.99;100.00
63090;BME280;49174;43.198;27.824;2022-12-07T02:46:38;101734.97;;;5.94;100.00
63090;BME280;49174;43.198;27.824;2022-12-07T02:49:06;101744.69;;;6.05;100.00
63090;BME280;49174;43.198;27.824;2022-12-07T02:51:34;101741.88;;;5.97;100.00
63090;BME280;49174;43.198;27.824;2022-12-07T02:54:11;101727.78;;;6.04;100.00
63090;BME280;49174;43.198;27.824;2022-12-07T03:05:20;101723.97;;;5.97;100.00
63090;BME280;49174;43.198;27.824;2022-12-07T03:07:59;101726.94;;;5.94;100.00
63090;BME280;49174;43.198;27.824;2022-12-07T03:15:39;101718.97;;;5.93;100.00
63090;BME280;49174;43.198;27.824;2022-12-07T03:18:07;101728.59;;;5.95;100.00
63090;BME280;49174;43.198;27.824;2022-12-07T03:20:36;101726.94;;;5.94;100.00
63090;BME280;49174;43.198;27.824;2022-12-07T03:23:05;101732.84;;;5.98;100.00
63090;BME280;49174;43.198;27.824;2022-12-07T03:25:40;101732.00;;;5.97;100.00
63090;BME280;49174;43.198;27.824;2022-12-07T03:28:08;101732.28;;;5.94;100.00
63090;BME280;49174;43.198;27.824;2022-12-07T03:30:42;101724.63;;;5.90;100.00
63090;BME280;49174;43.198;27.824;2022-12-07T03:33:39;101727.19;;;5.91;100.00
63090;BME280;49174;43.198;27.824;2022-12-07T03:36:13;101722.41;;;5.85;100.00
63090;BME280;49174;43.198;27.824;2022-12-07T03:38:47;101723.38;;;5.84;100.00
63090;BME280;49174;43.198;27.824;2022-12-07T03:41:22;101725.22;;;5.83;100.00
63090;BME280;49174;43.198;27.824;2022-12-07T03:43:48;101723.66;;;5.81;100.00
63090;BME280;49174;43.198;27.824;2022-12-07T03:46:42;101724.78;;;5.78;100.00
63090;BME280;49174;43.198;27.824;2022-12-07T03:52:24;101729.41;;;5.76;100.00
63090;BME280;49174;43.198;27.824;2022-12-07T03:57:33;101733.94;;;5.66;100.00
63090;BME280;49174;43.198;27.824;2022-12-07T03:59:58;101726.34;;;5.62;100.00
63090;BME280;49174;43.198;27.824;2022-12-07T04:02:27;101726.75;;;5.57;100.00
63090;BME280;49174;43.198;27.824;2022-12-07T04:04:55;101724.06;;;5.57;100.00
63090;BME280;49174;43.198;27.824;2022-12-07T04:07:21;101724.06;;;5.57;100.00
63090;BME280;49174;43.198;27.824;2022-12-07T04:09:46;101720.41;;;5.48;100.00
63090;BME280;49174;43.198;27.824;2022-12-07T04:12:12;101725.31;;;5.43;100.00
63090;BME280;49174;43.198;27.824;2022-12-07T04:14:37;101713.63;;;5.34;100.00
63090;BME280;49174;43.198;27.824;2022-12-07T04:17:03;101714.91;;;5.30;100.00
63090;BME280;49174;43.198;27.824;2022-12-07T04:19:31;101712.50;;;5.27;100.00
63090;BME280;49174;43.198;27.824;2022-12-07T04:21:59;101705.72;;;5.23;100.00
63090;BME280;49174;43.198;27.824;2022-12-07T04:24:25;101700.22;;;5.15;100.00
63090;BME280;49174;43.198;27.824;2022-12-07T04:26:51;101706.56;;;5.14;100.00
63090;BME280;49174;43.198;27.824;2022-12-07T04:29:18;101706.84;;;5.11;100.00
63090;BME280;49174;43.198;27.824;2022-12-07T04:31:44;101703.72;;;5.06;100.00
63090;BME280;49174;43.198;27.824;2022-12-07T04:34:10;101703.16;;;5.02;100.00
63090;BME280;49174;43.198;27.824;2022-12-07T04:36:36;101707.22;;;4.97;100.00
63090;BME280;49174;43.198;27.824;2022-12-07T04:39:03;101712.13;;;4.91;100.00
63090;BME280;49174;43.198;27.824;2022-12-07T04:41:29;101712.97;;;4.92;100.00
63090;BME280;49174;43.198;27.824;2022-12-07T04:44:00;101714.25;;;4.88;100.00
63090;BME280;49174;43.198;27.824;2022-12-07T04:46:28;101716.03;;;4.87;100.00
63090;BME280;49174;43.198;27.824;2022-12-07T04:48:54;101723.38;;;4.85;100.00
63090;BME280;49174;43.198;27.824;2022-12-07T04:51:23;101716.31;;;4.84;100.00
63090;BME280;49174;43.198;27.824;2022-12-07T04:53:49;101720.97;;;4.82;100.00
63090;BME280;49174;43.198;27.824;2022-12-07T04:56:18;101722.53;;;4.85;100.00
63090;BME280;49174;43.198;27.824;2022-12-07T04:58:45;101714.25;;;4.88;100.00
63090;BME280;49174;43.198;27.824;2022-12-07T05:01:12;101726.75;;;4.87;100.00
63090;BME280;49174;43.198;27.824;2022-12-07T05:03:38;101720.56;;;4.87;100.00
63090;BME280;49174;43.198;27.824;2022-12-07T05:06:04;101722.84;;;4.91;100.00
63090;BME280;49174;43.198;27.824;2022-12-07T05:08:30;101724.22;;;4.96;100.00
63090;BME280;49174;43.198;27.824;2022-12-07T05:10:56;101725.28;;;5.04;100.00
63090;BME280;49174;43.198;27.824;2022-12-07T05:13:22;101722.00;;;5.01;100.00
63090;BME280;49174;43.198;27.824;2022-12-07T05:15:48;101727.34;;;5.01;100.00
63090;BME280;49174;43.198;27.824;2022-12-07T05:18:14;101734.69;;;4.99;100.00
63090;BME280;49174;43.198;27.824;2022-12-07T05:20:40;101731.28;;;4.97;100.00
63090;BME280;49174;43.198;27.824;2022-12-07T05:23:05;101744.50;;;4.98;100.00
63090;BME280;49174;43.198;27.824;2022-12-07T05:25:31;101737.78;;;5.04;100.00
63090;BME280;49174;43.198;27.824;2022-12-07T05:27:57;101736.94;;;5.03;100.00
63090;BME280;49174;43.198;27.824;2022-12-07T05:30:23;101734.94;;;4.96;100.00
63090;BME280;49174;43.198;27.824;2022-12-07T05:32:49;101726.91;;;4.86;100.00
63090;BME280;49174;43.198;27.824;2022-12-07T05:35:15;101729.28;;;4.79;100.00
63090;BME280;49174;43.198;27.824;2022-12-07T05:37:42;101732.91;;;4.78;100.00
63090;BME280;49174;43.198;27.824;2022-12-07T05:40:09;101730.50;;;4.75;100.00
63090;BME280;49174;43.198;27.824;2022-12-07T05:42:34;101738.81;;;4.72;100.00
63090;BME280;49174;43.198;27.824;2022-12-07T05:45:00;101734.69;;;4.68;100.00
63090;BME280;49174;43.198;27.824;2022-12-07T05:47:28;101723.44;;;4.64;100.00
63090;BME280;49174;43.198;27.824;2022-12-07T05:49:53;101727.34;;;4.60;100.00
63090;BME280;49174;43.198;27.824;2022-12-07T05:52:19;101727.47;;;4.59;100.00
63090;BME280;49174;43.198;27.824;2022-12-07T05:54:45;101731.41;;;4.55;100.00
63090;BME280;49174;43.198;27.824;2022-12-07T05:57:10;101730.41;;;4.56;100.00
63090;BME280;49174;43.198;27.824;2022-12-07T05:59:36;101724.97;;;4.57;100.00
63090;BME280;49174;43.198;27.824;2022-12-07T06:02:08;101727.91;;;4.54;100.00
63090;BME280;49174;43.198;27.824;2022-12-07T06:04:40;101729.69;;;4.54;100.00
63090;BME280;49174;43.198;27.824;2022-12-07T06:07:07;101727.75;;;4.56;100.00
63090;BME280;49174;43.198;27.824;2022-12-07T06:09:34;101730.69;;;4.53;100.00
63090;BME280;49174;43.198;27.824;2022-12-07T06:12:00;101729.19;;;4.60;100.00
63090;BME280;49174;43.198;27.824;2022-12-07T06:14:44;101736.22;;;4.61;100.00
63090;BME280;49174;43.198;27.824;2022-12-07T06:17:10;101734.53;;;4.60;100.00
63090;BME280;49174;43.198;27.824;2022-12-07T06:19:37;101738.91;;;4.61;100.00
63090;BME280;49174;43.198;27.824;2022-12-07T06:22:03;101730.59;;;4.64;100.00
63090;BME280;49174;43.198;27.824;2022-12-07T06:24:30;101733.00;;;4.67;100.00
63090;BME280;49174;43.198;27.824;2022-12-07T06:26:56;101732.47;;;4.73;100.00
63090;BME280;49174;43.198;27.824;2022-12-07T06:29:22;101732.63;;;4.81;100.00
63090;BME280;49174;43.198;27.824;2022-12-07T06:31:48;101736.66;;;4.97;100.00
63090;BME280;49174;43.198;27.824;2022-12-07T06:34:16;101734.97;;;5.05;100.00
63090;BME280;49174;43.198;27.824;2022-12-07T06:36:42;101727.41;;;5.10;100.00
63090;BME280;49174;43.198;27.824;2022-12-07T06:39:08;101740.63;;;5.12;100.00
63090;BME280;49174;43.198;27.824;2022-12-07T06:41:37;101737.09;;;5.11;100.00
63090;BME280;49174;43.198;27.824;2022-12-07T06:44:06;101739.81;;;5.21;100.00
63090;BME280;49174;43.198;27.824;2022-12-07T06:46:32;101740.53;;;5.33;100.00
63090;BME280;49174;43.198;27.824;2022-12-07T06:48:58;101735.19;;;5.43;100.00
63090;BME280;49174;43.198;27.824;2022-12-07T06:51:24;101738.16;;;5.49;100.00
63090;BME280;49174;43.198;27.824;2022-12-07T06:53:49;101740.69;;;5.51;100.00
63090;BME280;49174;43.198;27.824;2022-12-07T06:56:15;101741.13;;;5.56;100.00
63090;BME280;49174;43.198;27.824;2022-12-07T06:58:41;101734.91;;;5.65;100.00
63090;BME280;49174;43.198;27.824;2022-12-07T07:01:14;101734.53;;;5.79;100.00
63090;BME280;49174;43.198;27.824;2022-12-07T07:03:40;101734.63;;;5.88;100.00
63090;BME280;49174;43.198;27.824;2022-12-07T07:06:13;101738.91;;;6.00;100.00
63090;BME280;49174;43.198;27.824;2022-12-07T07:08:39;101736.34;;;6.08;100.00
63090;BME280;49174;43.198;27.824;2022-12-07T07:11:06;101731.97;;;6.17;100.00
63090;BME280;49174;43.198;27.824;2022-12-07T07:13:32;101743.66;;;6.25;100.00
63090;BME280;49174;43.198;27.824;2022-12-07T07:15:58;101746.34;;;6.35;100.00
63090;BME280;49174;43.198;27.824;2022-12-07T07:18:23;101744.16;;;6.48;100.00
63090;BME280;49174;43.198;27.824;2022-12-07T07:20:50;101742.84;;;6.62;100.00
63090;BME280;49174;43.198;27.824;2022-12-07T07:23:16;101739.84;;;6.75;100.00
63090;BME280;49174;43.198;27.824;2022-12-07T07:25:42;101744.72;;;6.89;100.00
63090;BME280;49174;43.198;27.824;2022-12-07T07:28:07;101745.22;;;7.03;100.00
63090;BME280;49174;43.198;27.824;2022-12-07T07:30:34;101747.53;;;7.15;100.00
63090;BME280;49174;43.198;27.824;2022-12-07T07:33:01;101737.75;;;7.24;100.00
63090;BME280;49174;43.198;27.824;2022-12-07T07:35:28;101736.03;;;7.33;100.00
63090;BME280;49174;43.198;27.824;2022-12-07T07:37:53;101734.78;;;7.45;100.00
63090;BME280;49174;43.198;27.824;2022-12-07T07:40:19;101737.94;;;7.58;100.00
63090;BME280;49174;43.198;27.824;2022-12-07T07:42:50;101736.00;;;7.69;100.00
63090;BME280;49174;43.198;27.824;2022-12-07T07:45:16;101741.16;;;7.80;100.00
63090;BME280;49174;43.198;27.824;2022-12-07T07:47:42;101741.22;;;7.88;100.00
63090;BME280;49174;43.198;27.824;2022-12-07T07:50:08;101742.53;;;8.02;100.00
63090;BME280;49174;43.198;27.824;2022-12-07T07:52:33;101745.28;;;8.10;100.00
63090;BME280;49174;43.198;27.824;2022-12-07T07:54:59;101746.13;;;8.11;100.00
63090;BME280;49174;43.198;27.824;2022-12-07T07:57:24;101751.88;;;8.16;100.00
63090;BME280;49174;43.198;27.824;2022-12-07T07:59:50;101748.59;;;8.22;100.00
63090;BME280;49174;43.198;27.824;2022-12-07T08:02:17;101744.31;;;8.37;100.00
63090;BME280;49174;43.198;27.824;2022-12-07T08:04:44;101748.00;;;8.36;100.00
63090;BME280;49174;43.198;27.824;2022-12-07T08:07:11;101749.25;;;8.42;100.00
63090;BME280;49174;43.198;27.824;2022-12-07T08:09:37;101741.56;;;8.47;100.00
63090;BME280;49174;43.198;27.824;2022-12-07T08:12:03;101739.06;;;8.54;100.00
63090;BME280;49174;43.198;27.824;2022-12-07T08:14:28;101748.34;;;8.59;100.00
63090;BME280;49174;43.198;27.824;2022-12-07T08:16:54;101737.25;;;8.62;100.00
63090;BME280;49174;43.198;27.824;2022-12-07T08:19:20;101739.13;;;8.62;100.00
63090;BME280;49174;43.198;27.824;2022-12-07T08:21:47;101740.47;;;8.66;100.00
63090;BME280;49174;43.198;27.824;2022-12-07T08:24:13;101739.53;;;8.75;100.00
63090;BME280;49174;43.198;27.824;2022-12-07T08:26:39;101738.03;;;8.81;100.00
63090;BME280;49174;43.198;27.824;2022-12-07T08:29:04;101732.53;;;8.90;100.00
63090;BME280;49174;43.198;27.824;2022-12-07T08:31:30;101740.31;;;9.02;100.00
63090;BME280;49174;43.198;27.824;2022-12-07T08:33:55;101739.66;;;9.08;100.00
63090;BME280;49174;43.198;27.824;2022-12-07T08:36:21;101741.56;;;9.24;100.00
63090;BME280;49174;43.198;27.824;2022-12-07T08:38:48;101735.03;;;9.34;100.00
63090;BME280;49174;43.198;27.824;2022-12-07T08:41:14;101736.94;;;9.50;100.00
63090;BME280;49174;43.198;27.824;2022-12-07T08:43:40;101727.66;;;9.61;100.00
63090;BME280;49174;43.198;27.824;2022-12-07T08:46:25;101727.66;;;9.69;100.00
63090;BME280;49174;43.198;27.824;2022-12-07T08:49:01;101722.28;;;9.77;100.00
63090;BME280;49174;43.198;27.824;2022-12-07T08:51:27;101723.31;;;9.84;100.00
63090;BME280;49174;43.198;27.824;2022-12-07T08:53:53;101722.81;;;9.81;99.55
63090;BME280;49174;43.198;27.824;2022-12-07T08:56:22;101715.56;;;9.90;100.00
63090;BME280;49174;43.198;27.824;2022-12-07T08:58:48;101717.25;;;9.99;100.00
63090;BME280;49174;43.198;27.824;2022-12-07T09:01:14;101712.00;;;10.05;100.00
63090;BME280;49174;43.198;27.824;2022-12-07T09:03:40;101713.19;;;10.11;100.00
63090;BME280;49174;43.198;27.824;2022-12-07T09:06:07;101710.16;;;10.14;100.00
63090;BME280;49174;43.198;27.824;2022-12-07T09:08:38;101704.41;;;10.25;99.02
63090;BME280;49174;43.198;27.824;2022-12-07T09:11:06;101704.09;;;10.37;94.45
63090;BME280;49174;43.198;27.824;2022-12-07T09:13:31;101693.28;;;10.45;96.09
63090;BME280;49174;43.198;27.824;2022-12-07T09:15:57;101694.25;;;10.52;96.80
63090;BME280;49174;43.198;27.824;2022-12-07T09:18:22;101687.50;;;10.56;93.78
63090;BME280;49174;43.198;27.824;2022-12-07T09:20:49;101679.56;;;10.63;93.18
63090;BME280;49174;43.198;27.824;2022-12-07T09:23:15;101676.63;;;10.72;88.39
63090;BME280;49174;43.198;27.824;2022-12-07T09:25:40;101684.91;;;10.79;89.93
63090;BME280;49174;43.198;27.824;2022-12-07T09:28:06;101682.50;;;10.84;92.26
63090;BME280;49174;43.198;27.824;2022-12-07T09:30:31;101684.97;;;10.94;91.26
63090;BME280;49174;43.198;27.824;2022-12-07T09:32:57;101686.81;;;11.02;88.23
63090;BME280;49174;43.198;27.824;2022-12-07T09:35:24;101670.38;;;11.11;85.10
63090;BME280;49174;43.198;27.824;2022-12-07T09:37:49;101669.19;;;11.14;84.19
63090;BME280;49174;43.198;27.824;2022-12-07T09:40:18;101663.28;;;11.10;83.67
63090;BME280;49174;43.198;27.824;2022-12-07T09:42:54;101663.91;;;11.21;88.85
63090;BME280;49174;43.198;27.824;2022-12-07T09:45:27;101669.06;;;11.30;85.51
63090;BME280;49174;43.198;27.824;2022-12-07T09:47:57;101664.50;;;11.31;83.28
63090;BME280;49174;43.198;27.824;2022-12-07T09:50:25;101658.28;;;11.30;82.56
63090;BME280;49174;43.198;27.824;2022-12-07T09:52:52;101655.63;;;11.22;82.46
63090;BME280;49174;43.198;27.824;2022-12-07T09:55:23;101659.66;;;11.26;83.56
63090;BME280;49174;43.198;27.824;2022-12-07T09:57:51;101656.06;;;11.34;84.21
63090;BME280;49174;43.198;27.824;2022-12-07T10:00:20;101655.88;;;11.35;84.54
63090;BME280;49174;43.198;27.824;2022-12-07T10:02:59;101656.66;;;11.44;86.54
63090;BME280;49174;43.198;27.824;2022-12-07T10:05:31;101643.38;;;11.57;85.69
63090;BME280;49174;43.198;27.824;2022-12-07T10:07:58;101648.06;;;11.63;82.39
63090;BME280;49174;43.198;27.824;2022-12-07T10:10:30;101640.91;;;11.71;82.79
63090;BME280;49174;43.198;27.824;2022-12-07T10:13:02;101640.28;;;11.83;79.94
63090;BME280;49174;43.198;27.824;2022-12-07T10:18:38;101632.63;;;12.10;82.04
63090;BME280;49174;43.198;27.824;2022-12-07T10:21:13;101627.28;;;12.17;77.49
63090;BME280;49174;43.198;27.824;2022-12-07T10:23:41;101626.38;;;12.24;80.48
63090;BME280;49174;43.198;27.824;2022-12-07T10:26:36;101611.53;;;12.35;78.21
63090;BME280;49174;43.198;27.824;2022-12-07T10:29:23;101612.94;;;12.31;76.46
63090;BME280;49174;43.198;27.824;2022-12-07T10:34:42;101614.72;;;12.24;78.75
63090;BME280;49174;43.198;27.824;2022-12-07T10:39:51;101604.81;;;12.31;79.28
63090;BME280;49174;43.198;27.824;2022-12-07T10:42:29;101605.09;;;12.36;77.46
63090;BME280;49174;43.198;27.824;2022-12-07T10:47:48;101609.03;;;12.48;76.06
63090;BME280;49174;43.198;27.824;2022-12-07T11:01:57;101591.56;;;12.21;78.69
63090;BME280;49174;43.198;27.824;2022-12-07T11:21:23;101553.69;;;12.72;73.56
63090;BME280;49174;43.198;27.824;2022-12-07T11:24:07;101555.84;;;12.77;73.68
63090;BME280;49174;43.198;27.824;2022-12-07T11:34:59;101553.38;;;13.04;71.33
63090;BME280;49174;43.198;27.824;2022-12-07T11:37:34;101549.78;;;13.18;71.97
63090;BME280;49174;43.198;27.824;2022-12-07T11:40:29;101544.56;;;13.16;72.67
63090;BME280;49174;43.198;27.824;2022-12-07T11:43:01;101545.66;;;13.22;73.02
63090;BME280;49174;43.198;27.824;2022-12-07T11:45:32;101541.56;;;13.26;73.76
63090;BME280;49174;43.198;27.824;2022-12-07T11:48:15;101541.56;;;13.26;71.34
63090;BME280;49174;43.198;27.824;2022-12-07T11:50:52;101547.31;;;13.23;70.66
63090;BME280;49174;43.198;27.824;2022-12-07T11:53:24;101538.56;;;13.21;70.74
63090;BME280;49174;43.198;27.824;2022-12-07T12:03:38;101539.66;;;13.05;71.15
63090;BME280;49174;43.198;27.824;2022-12-07T12:06:05;101533.59;;;13.03;72.64
63090;BME280;49174;43.198;27.824;2022-12-07T12:08:40;101537.38;;;13.09;73.50
63090;BME280;49174;43.198;27.824;2022-12-07T12:19:14;101522.31;;;13.21;75.01
63090;BME280;49174;43.198;27.824;2022-12-07T12:21:43;101516.78;;;13.29;75.23
63090;BME280;49174;43.198;27.824;2022-12-07T12:24:17;101514.06;;;13.29;75.67
63090;BME280;49174;43.198;27.824;2022-12-07T12:27:07;101510.31;;;13.30;74.94
63090;BME280;49174;43.198;27.824;2022-12-07T12:29:39;101511.34;;;13.29;73.62
63090;BME280;49174;43.198;27.824;2022-12-07T12:32:21;101517.41;;;13.31;73.92
63090;BME280;49174;43.198;27.824;2022-12-07T12:42:45;101502.44;;;13.35;73.17
63090;BME280;49174;43.198;27.824;2022-12-07T12:45:20;101504.94;;;13.37;73.46
63090;BME280;49174;43.198;27.824;2022-12-07T12:47:57;101505.81;;;13.37;73.07
63090;BME280;49174;43.198;27.824;2022-12-07T12:53:12;101501.34;;;13.30;71.97
63090;BME280;49174;43.198;27.824;2022-12-07T13:00:46;101513.97;;;13.23;72.78
63090;BME280;49174;43.198;27.824;2022-12-07T13:03:29;101508.75;;;13.21;72.24
63090;BME280;49174;43.198;27.824;2022-12-07T13:06:18;101509.38;;;13.23;73.43
63090;BME280;49174;43.198;27.824;2022-12-07T13:08:45;101503.34;;;13.21;74.17
63090;BME280;49174;43.198;27.824;2022-12-07T13:11:33;101502.69;;;13.19;74.44
63090;BME280;49174;43.198;27.824;2022-12-07T13:41:17;101489.16;;;12.97;74.19
63090;BME280;49174;43.198;27.824;2022-12-07T13:44:03;101490.72;;;12.85;73.98
63090;BME280;49174;43.198;27.824;2022-12-07T13:46:40;101488.78;;;12.79;75.41
63090;BME280;49174;43.198;27.824;2022-12-07T13:51:49;101482.44;;;12.72;76.54
63090;BME280;49174;43.198;27.824;2022-12-07T13:54:15;101494.06;;;12.66;75.83
63090;BME280;49174;43.198;27.824;2022-12-07T13:56:41;101499.22;;;12.61;77.05
63090;BME280;49174;43.198;27.824;2022-12-07T13:59:14;101497.66;;;12.51;76.91
63090;BME280;49174;43.198;27.824;2022-12-07T14:01:41;101503.84;;;12.45;77.06
63090;BME280;49174;43.198;27.824;2022-12-07T14:04:34;101500.22;;;12.38;77.33
63090;BME280;49174;43.198;27.824;2022-12-07T14:07:01;101500.13;;;12.32;77.59
63090;BME280;49174;43.198;27.824;2022-12-07T14:09:57;101508.38;;;12.23;78.27
63090;BME280;49174;43.198;27.824;2022-12-07T14:12:24;101500.16;;;12.17;77.73
63090;BME280;49174;43.198;27.824;2022-12-07T14:14:50;101503.59;;;12.11;78.48
63090;BME280;49174;43.198;27.824;2022-12-07T14:17:21;101503.53;;;12.04;79.13
63090;BME280;49174;43.198;27.824;2022-12-07T14:19:55;101503.44;;;11.97;79.64
63090;BME280;49174;43.198;27.824;2022-12-07T14:22:38;101502.53;;;11.90;79.32
63090;BME280;49174;43.198;27.824;2022-12-07T14:27:46;101503.31;;;11.76;79.78
63090;BME280;49174;43.198;27.824;2022-12-07T14:30:17;101503.41;;;11.68;81.80
63090;BME280;49174;43.198;27.824;2022-12-07T14:32:43;101497.88;;;11.61;81.16
63090;BME280;49174;43.198;27.824;2022-12-07T14:35:15;101504.59;;;11.50;82.02
63090;BME280;49174;43.198;27.824;2022-12-07T14:37:43;101492.84;;;11.43;81.65
63090;BME280;49174;43.198;27.824;2022-12-07T14:40:33;101494.44;;;11.37;82.36
63090;BME280;49174;43.198;27.824;2022-12-07T14:43:19;101489.41;;;11.34;81.81
63090;BME280;49174;43.198;27.824;2022-12-07T14:45:45;101494.22;;;11.39;81.89
63090;BME280;49174;43.198;27.824;2022-12-07T14:48:13;101491.25;;;11.34;81.38
63090;BME280;49174;43.198;27.824;2022-12-07T14:50:46;101494.13;;;11.17;82.27
63090;BME280;49174;43.198;27.824;2022-12-07T14:53:17;101498.91;;;11.07;82.42
63090;BME280;49174;43.198;27.824;2022-12-07T14:55:44;101500.00;;;10.98;83.84
63090;BME280;49174;43.198;27.824;2022-12-07T14:58:16;101500.72;;;10.92;83.00
63090;BME280;49174;43.198;27.824;2022-12-07T15:00:43;101506.19;;;10.84;83.61
63090;BME280;49174;43.198;27.824;2022-12-07T15:03:09;101508.28;;;10.73;83.99
63090;BME280;49174;43.198;27.824;2022-12-07T15:05:35;101511.41;;;10.62;83.48
63090;BME280;49174;43.198;27.824;2022-12-07T15:08:01;101510.31;;;10.48;84.56
63090;BME280;49174;43.198;27.824;2022-12-07T15:10:30;101514.41;;;10.36;85.07
63090;BME280;49174;43.198;27.824;2022-12-07T15:13:02;101518.00;;;10.20;86.30
63090;BME280;49174;43.198;27.824;2022-12-07T15:15:48;101519.69;;;10.13;85.74
63090;BME280;49174;43.198;27.824;2022-12-07T15:18:14;101525.13;;;10.05;86.95
63090;BME280;49174;43.198;27.824;2022-12-07T15:20:39;101527.69;;;9.98;87.82
63090;BME280;49174;43.198;27.824;2022-12-07T15:23:05;101521.28;;;9.91;87.69